Wilson Gaeta — 8PTS — position and weather

sailwx.info

Track history (hours):
 
Tides and Currents Weather Stations Pressure Air Temp Water Temp Dewpoint Dewpoint Depression Visibility Wind Speed Wind Dir Waves Ship Positions

Wilson Gaeta

Last reported at 2015-Apr-26 22:21 UTC. Time now 2015-Apr-28 02:08 UTC.
Position N 63°25' E 007°07'.

Length 88 m; draft 5.2 m.

Type: Cargo ship. MMSI: 314237000.

Date/timePositionNaut miles runAvg speedWind from/ knotsBaromVisibWave heightAir tempDewpointWater temp
2015-Apr-26 22:21N 63°25' E 007°07'222 6.6
2015-Apr-25 12:27N 66°34' E 011°44'60 9.9
2015-Apr-25 06:23N 67°21' E 013°18'1910.0
2015-Apr-25 04:26N 67°36' E 013°50'10 9.9
2015-Apr-25 03:28N 67°44' E 014°05'9 9.7
2015-Apr-25 02:33N 67°51' E 014°20'  
2015-Apr-22 20:27N 67°48' E 014°15'37 8.7
2015-Apr-22 16:13N 67°16' E 013°27'4 6.4
2015-Apr-22 15:33N 67°14' E 013°37'7 6.7
2015-Apr-22 14:33N 67°12' E 013°53'6 5.6
2015-Apr-22 13:33N 67°07' E 013°60'1110.8
2015-Apr-22 12:33N 66°59' E 013°41'4 0.1
2015-Apr-21 04:33N 66°58' E 013°30'9 9.0
2015-Apr-21 03:33N 67°03' E 013°50'9 8.8
2015-Apr-21 02:34N 67°10' E 014°02'9 9.0
2015-Apr-21 01:33N 67°14' E 013°41'  
Track history (hours):
 
Tides and Currents Weather Stations Pressure Air Temp Water Temp Dewpoint Dewpoint Depression Visibility Wind Speed Wind Dir Waves Ship Positions

Wilson Gaeta

Last reported at 2015-Apr-26 22:21 UTC. Time now 2015-Apr-28 02:08 UTC.
Position N 63°25' E 007°07'.

Length 88 m; draft 5.2 m.

Type: Cargo ship. MMSI: 314237000.

Date/timePositionNaut miles runAvg speedWind from/ knotsBaromVisibWave heightAir tempDewpointWater temp
2015-Apr-26 22:21N 63°25' E 007°07'222 6.6
2015-Apr-25 12:27N 66°34' E 011°44'60 9.9
2015-Apr-25 06:23N 67°21' E 013°18'1910.0
2015-Apr-25 04:26N 67°36' E 013°50'10 9.9
2015-Apr-25 03:28N 67°44' E 014°05'9 9.7
2015-Apr-25 02:33N 67°51' E 014°20'  
2015-Apr-22 20:27N 67°48' E 014°15'37 8.7
2015-Apr-22 16:13N 67°16' E 013°27'4 6.4
2015-Apr-22 15:33N 67°14' E 013°37'7 6.7
2015-Apr-22 14:33N 67°12' E 013°53'6 5.6
2015-Apr-22 13:33N 67°07' E 013°60'1110.8
2015-Apr-22 12:33N 66°59' E 013°41'4 0.1
2015-Apr-21 04:33N 66°58' E 013°30'9 9.0
2015-Apr-21 03:33N 67°03' E 013°50'9 8.8
2015-Apr-21 02:34N 67°10' E 014°02'9 9.0
2015-Apr-21 01:33N 67°14' E 013°41'  

Dump ship's entire track history